Main page
METAR-TAF:

METAR-TAF

Airports :

Kalamata International Airport

Kalamata, Greece

latitude: 37-04N, longitude: 022-01E, elevation: 6 m

Current weather observation

The report was made 27 minutes ago, at 18:20 UTC
Calm wind
Temperature 12°C
Humidity 71%
Pressure 1017 hPa
Visibility 10 km or more
no clouds below 1500 m and no cumulonimbus

METAR: LGKL 231820Z 00000KT CAVOK 12/07 Q1017

Time: 20:47 (18:47 UTC)

Forecast

The report was made 1 hour and 47 minutes ago, at 17:00 UTC
Forecast valid from 23 at 18 UTC to 24 at 03 UTC
Wind 8 kt from the North/Northwest
Visibility 10 km or more
Few clouds at a height of 3000 ft

TAF: LGKL 231700Z 2318/2403 34008KT 9999 FEW030

Weather observations and forecasts of more than 4000 airports (METAR and TAF reports).

The available stations are represented by yellow and red dots on the map.

Hover mouse over dot to see the name of the station.

Then click to see weather observations and forecasts.

To change the map : click on the green buttons with a black cross to zoom in, on the green button with a dash to zoom out, or on the green arrows for adjacent maps.


METAR-TAF: